createdAt,value
2023-05-19T00:00:37.995Z,3.99
2023-05-19T00:03:09.299Z,3.78
2023-05-19T00:05:41.268Z,3.96
2023-05-19T00:08:12.333Z,3.86
2023-05-19T00:10:41.032Z,3.70
2023-05-19T00:13:10.290Z,3.57
2023-05-19T00:15:41.181Z,3.46
2023-05-19T00:18:10.255Z,3.42
2023-05-19T00:20:39.104Z,3.55
2023-05-19T00:23:07.714Z,3.64
2023-05-19T00:25:36.290Z,3.74
2023-05-19T00:28:05.187Z,3.89
2023-05-19T00:30:33.901Z,3.96
2023-05-19T00:33:04.072Z,3.90
2023-05-19T00:35:32.768Z,3.99
2023-05-19T00:38:01.377Z,4.03
2023-05-19T00:40:33.589Z,3.99
2023-05-19T00:43:03.058Z,3.96
2023-05-19T00:45:32.029Z,3.87
2023-05-19T00:48:00.658Z,3.84
2023-05-19T00:50:31.198Z,3.67
2023-05-19T00:53:00.172Z,3.49
2023-05-19T00:55:30.666Z,3.23
2023-05-19T00:57:59.422Z,3.04
2023-05-19T01:00:28.430Z,2.96
2023-05-19T01:02:57.358Z,2.97
2023-05-19T01:05:26.018Z,3.08
2023-05-19T01:07:57.045Z,2.87
2023-05-19T01:10:26.482Z,2.69
2023-05-19T01:12:55.336Z,2.57
2023-05-19T01:15:25.383Z,2.50
2023-05-19T01:18:01.514Z,2.58
2023-05-19T01:20:38.644Z,2.48
2023-05-19T01:23:25.195Z,2.38
2023-05-19T01:26:18.351Z,2.24
2023-05-19T01:29:25.051Z,2.47
2023-05-19T01:32:00.620Z,2.49
2023-05-19T01:34:31.916Z,2.32
2023-05-19T01:37:03.047Z,2.51
2023-05-19T01:39:31.428Z,2.50
2023-05-19T01:42:01.245Z,2.34
2023-05-19T01:44:30.616Z,2.49
2023-05-19T01:47:00.794Z,2.41
2023-05-19T01:49:29.534Z,2.64
2023-05-19T01:51:58.511Z,2.63
2023-05-19T01:54:27.138Z,2.43
2023-05-19T01:57:10.467Z,2.22
2023-05-19T01:59:49.366Z,2.13
2023-05-19T02:02:27.800Z,2.18
2023-05-19T02:05:03.536Z,2.33
2023-05-19T02:07:42.985Z,2.31
2023-05-19T02:10:16.069Z,2.18
2023-05-19T02:12:47.317Z,2.27
2023-05-19T02:15:18.116Z,2.31
2023-05-19T02:17:52.148Z,2.30
2023-05-19T02:20:22.373Z,2.26
2023-05-19T02:22:51.077Z,2.18
2023-05-19T02:25:20.155Z,2.24
2023-05-19T02:27:49.348Z,2.05
2023-05-19T02:30:18.064Z,2.03
2023-05-19T02:32:48.216Z,2.16
2023-05-19T02:35:17.890Z,2.09
2023-05-19T02:37:46.543Z,2.14
2023-05-19T02:40:16.224Z,2.21
2023-05-19T02:42:44.832Z,2.23
2023-05-19T02:45:13.697Z,2.19
2023-05-19T02:47:43.243Z,2.07
2023-05-19T02:50:13.381Z,2.47
2023-05-19T02:52:41.914Z,2.44
2023-05-19T02:55:17.176Z,2.53
2023-05-19T02:57:45.921Z,2.51
2023-05-19T03:00:15.699Z,2.64
2023-05-19T03:02:46.280Z,2.79
2023-05-19T03:05:16.546Z,2.77
2023-05-19T03:07:45.330Z,2.43
2023-05-19T03:10:14.019Z,2.41
2023-05-19T03:12:42.782Z,2.58
2023-05-19T03:15:13.418Z,2.74
2023-05-19T03:17:42.332Z,2.87
2023-05-19T03:20:12.270Z,2.89
2023-05-19T03:22:42.719Z,3.13
2023-05-19T03:25:12.035Z,3.26
2023-05-19T03:27:40.975Z,3.25
2023-05-19T03:30:11.051Z,3.39
2023-05-19T03:32:52.811Z,3.54
2023-05-19T03:35:22.202Z,3.68
2023-05-19T03:37:52.458Z,3.84
2023-05-19T03:40:22.662Z,3.65
2023-05-19T03:42:54.530Z,3.72
2023-05-19T03:45:23.410Z,3.85
2023-05-19T03:47:54.026Z,4.03
2023-05-19T03:50:48.830Z,4.20
2023-05-19T03:53:23.558Z,4.37
2023-05-19T03:55:52.458Z,4.40
2023-05-19T03:58:21.158Z,4.52
2023-05-19T04:00:49.836Z,4.70
2023-05-19T04:03:18.665Z,4.84
2023-05-19T04:05:47.400Z,4.72
2023-05-19T04:08:16.768Z,4.87
2023-05-19T04:10:46.951Z,4.95
2023-05-19T04:13:16.187Z,4.78
2023-05-19T04:15:44.961Z,4.82
2023-05-19T04:18:13.784Z,5.08
2023-05-19T04:20:42.621Z,5.19
2023-05-19T04:23:11.408Z,5.32
2023-05-19T04:25:41.046Z,5.38
2023-05-19T04:28:11.227Z,5.41
2023-05-19T04:30:40.047Z,5.52
2023-05-19T04:33:09.240Z,5.59
2023-05-19T04:35:38.384Z,5.81
2023-05-19T04:38:07.834Z,6.07
2023-05-19T04:40:37.377Z,6.07
2023-05-19T04:43:07.559Z,6.02
2023-05-19T04:45:42.722Z,6.01
2023-05-19T04:48:14.311Z,6.14
2023-05-19T04:50:43.449Z,6.37
2023-05-19T04:53:12.071Z,6.33
2023-05-19T04:55:40.990Z,6.45
2023-05-19T04:58:09.792Z,6.42
2023-05-19T05:00:40.229Z,6.40
2023-05-19T05:03:10.341Z,6.54
2023-05-19T05:05:40.231Z,6.75
2023-05-19T05:08:08.949Z,6.83
2023-05-19T05:10:42.163Z,7.00
2023-05-19T05:13:11.896Z,7.20
2023-05-19T05:15:43.447Z,7.13
2023-05-19T05:18:13.424Z,7.25
2023-05-19T05:20:43.199Z,7.45
2023-05-19T05:23:14.825Z,7.47
2023-05-19T05:25:46.182Z,7.67
2023-05-19T05:28:16.058Z,7.73
2023-05-19T05:30:46.664Z,7.71
2023-05-19T05:33:16.801Z,7.77
2023-05-19T05:35:46.860Z,7.94
2023-05-19T05:38:16.578Z,7.82
2023-05-19T05:40:45.329Z,8.01
2023-05-19T05:43:14.004Z,8.32
2023-05-19T05:45:50.275Z,8.27
2023-05-19T05:48:19.793Z,8.47
2023-05-19T05:50:50.493Z,8.65
2023-05-19T05:53:26.107Z,8.76
2023-05-19T05:55:57.062Z,8.90
2023-05-19T05:58:30.161Z,9.00
2023-05-19T06:01:00.497Z,8.95
2023-05-19T06:03:29.286Z,8.82
2023-05-19T06:06:02.233Z,8.81
2023-05-19T06:08:30.916Z,8.98
2023-05-19T06:10:59.775Z,8.96
2023-05-19T06:13:30.547Z,8.98
2023-05-19T06:16:01.973Z,9.09
2023-05-19T06:18:43.531Z,9.12
2023-05-19T06:21:13.715Z,9.22
2023-05-19T06:23:43.598Z,9.34
2023-05-19T06:26:13.323Z,9.38
2023-05-19T06:28:41.965Z,9.60
2023-05-19T06:31:12.278Z,9.64
2023-05-19T06:34:01.173Z,9.71
2023-05-19T06:36:30.053Z,9.79
2023-05-19T06:39:01.896Z,9.85
2023-05-19T06:41:33.055Z,10.04
2023-05-19T06:44:01.819Z,10.11
2023-05-19T06:46:35.911Z,10.51
2023-05-19T06:49:05.836Z,10.86
2023-05-19T06:51:39.357Z,10.82
2023-05-19T06:54:11.172Z,11.10
2023-05-19T06:56:39.988Z,11.34
2023-05-19T06:59:09.124Z,10.99
2023-05-19T07:01:40.851Z,11.12
2023-05-19T07:04:10.171Z,11.22
2023-05-19T07:06:38.975Z,11.02
2023-05-19T07:09:09.174Z,11.39
2023-05-19T07:11:39.407Z,11.48
2023-05-19T07:14:09.016Z,11.56
2023-05-19T07:16:37.777Z,11.36
2023-05-19T07:19:09.184Z,11.65
2023-05-19T07:21:37.989Z,11.94
2023-05-19T07:24:06.971Z,12.17
2023-05-19T07:26:36.134Z,12.40
2023-05-19T07:29:05.136Z,12.49
2023-05-19T07:31:34.067Z,12.55
2023-05-19T07:34:02.777Z,12.50
2023-05-19T07:36:32.935Z,12.54
2023-05-19T07:39:01.723Z,12.66
2023-05-19T07:41:30.469Z,12.55
2023-05-19T07:43:59.101Z,12.78
2023-05-19T07:46:27.938Z,12.82
2023-05-19T07:48:56.709Z,12.97
2023-05-19T07:51:25.443Z,12.95
2023-05-19T07:53:55.653Z,13.20
2023-05-19T07:56:25.045Z,12.91
2023-05-19T07:58:53.747Z,12.97
2023-05-19T08:01:22.361Z,12.87
2023-05-19T08:03:51.208Z,12.61
2023-05-19T08:06:19.881Z,12.73
2023-05-19T08:08:48.624Z,12.87
2023-05-19T08:11:18.783Z,12.88
2023-05-19T08:13:49.375Z,12.75
2023-05-19T08:16:18.107Z,13.04
2023-05-19T08:18:46.832Z,13.16
2023-05-19T08:21:15.503Z,13.16
2023-05-19T08:23:44.148Z,13.22
2023-05-19T08:26:12.963Z,13.35
2023-05-19T08:28:43.071Z,13.55
2023-05-19T08:31:11.998Z,13.50
2023-05-19T08:33:40.745Z,13.32
2023-05-19T08:36:09.584Z,13.32
2023-05-19T08:38:38.188Z,13.62
2023-05-19T08:41:06.997Z,13.63
2023-05-19T08:43:35.715Z,13.64
2023-05-19T08:46:07.203Z,13.80
2023-05-19T08:48:38.895Z,13.80
2023-05-19T08:51:16.146Z,13.84
2023-05-19T08:53:50.390Z,13.91
2023-05-19T08:56:23.425Z,14.00
2023-05-19T08:58:52.965Z,14.23
2023-05-19T09:01:24.719Z,14.25
2023-05-19T09:03:53.663Z,14.43
2023-05-19T09:06:22.322Z,14.37
2023-05-19T09:08:51.006Z,14.41
2023-05-19T09:11:19.734Z,14.44
2023-05-19T09:13:48.967Z,14.57
2023-05-19T09:16:18.168Z,14.53
2023-05-19T09:18:57.455Z,14.73
2023-05-19T09:21:31.800Z,14.81
2023-05-19T09:24:05.260Z,14.87
2023-05-19T09:26:39.384Z,14.95
2023-05-19T09:29:15.351Z,14.83
2023-05-19T09:31:51.879Z,15.13
2023-05-19T09:34:25.137Z,15.14
2023-05-19T09:36:54.871Z,15.44
2023-05-19T09:39:25.459Z,15.63
2023-05-19T09:41:55.099Z,15.59
2023-05-19T09:44:24.537Z,15.42
2023-05-19T09:46:54.317Z,15.35
2023-05-19T09:49:25.538Z,15.14
2023-05-19T09:51:56.846Z,15.19
2023-05-19T09:54:27.668Z,15.27
2023-05-19T09:57:00.430Z,15.42
2023-05-19T09:59:32.884Z,15.57
2023-05-19T10:02:03.298Z,15.96
2023-05-19T10:04:33.490Z,16.19
2023-05-19T10:07:06.030Z,16.16
2023-05-19T10:09:35.611Z,16.28
2023-05-19T10:12:04.892Z,16.26
2023-05-19T10:14:33.562Z,16.24
2023-05-19T10:17:02.131Z,15.94
2023-05-19T10:19:32.913Z,15.85
2023-05-19T10:22:01.667Z,15.82
2023-05-19T10:24:30.213Z,16.26
2023-05-19T10:27:05.065Z,16.58
2023-05-19T10:29:37.925Z,16.83
2023-05-19T10:32:12.074Z,16.46
2023-05-19T10:35:18.103Z,16.17
2023-05-19T10:37:54.684Z,16.50
2023-05-19T10:40:29.268Z,16.49
2023-05-19T10:43:17.299Z,16.46
2023-05-19T10:45:50.264Z,16.55
2023-05-19T10:48:21.029Z,16.67
2023-05-19T10:50:54.374Z,16.35
2023-05-19T10:53:23.575Z,16.48
2023-05-19T10:55:56.942Z,16.60
2023-05-19T10:58:52.454Z,16.54
2023-05-19T11:01:22.420Z,16.69
2023-05-19T11:03:53.552Z,16.85
2023-05-19T11:06:27.678Z,16.80
2023-05-19T11:08:59.013Z,16.94
2023-05-19T11:11:28.513Z,16.94
2023-05-19T11:13:57.922Z,17.11
2023-05-19T11:16:30.221Z,17.04
2023-05-19T11:19:01.774Z,16.99
2023-05-19T11:21:50.812Z,17.00
2023-05-19T11:24:38.355Z,16.69
2023-05-19T11:27:24.387Z,16.76
2023-05-19T11:29:53.516Z,16.87
2023-05-19T11:32:22.844Z,17.06
2023-05-19T11:34:51.732Z,16.93
2023-05-19T11:37:21.809Z,17.01
2023-05-19T11:39:51.075Z,16.73
2023-05-19T11:42:19.731Z,17.00
2023-05-19T11:44:48.545Z,16.86
2023-05-19T11:47:18.573Z,16.39
2023-05-19T11:49:49.876Z,16.53
2023-05-19T11:52:18.876Z,16.56
2023-05-19T11:54:50.183Z,16.41
2023-05-19T11:57:18.995Z,16.25
2023-05-19T11:59:50.004Z,16.01
2023-05-19T12:02:20.699Z,16.10
2023-05-19T12:04:49.995Z,16.02
2023-05-19T12:07:19.772Z,16.07
2023-05-19T12:09:50.765Z,15.95
2023-05-19T12:12:20.816Z,16.12
2023-05-19T12:14:50.341Z,15.96
2023-05-19T12:17:20.891Z,15.93
2023-05-19T12:19:50.653Z,15.91
2023-05-19T12:22:20.613Z,15.96
2023-05-19T12:24:52.018Z,15.93
2023-05-19T12:27:22.020Z,15.89
2023-05-19T12:29:54.402Z,15.80
2023-05-19T12:32:25.742Z,15.71
2023-05-19T12:34:54.938Z,15.97
2023-05-19T12:37:23.750Z,16.09
2023-05-19T12:39:53.948Z,16.01
2023-05-19T12:42:22.575Z,16.08
2023-05-19T12:44:52.855Z,16.13
2023-05-19T12:47:23.044Z,16.12
2023-05-19T12:49:58.411Z,16.01
2023-05-19T12:52:27.985Z,15.96
2023-05-19T12:55:02.052Z,16.00
2023-05-19T12:57:32.218Z,16.12
2023-05-19T13:00:07.255Z,16.15
2023-05-19T13:02:37.022Z,16.28
2023-05-19T13:05:08.452Z,16.00
2023-05-19T13:07:37.154Z,15.96
2023-05-19T13:10:08.447Z,16.01
2023-05-19T13:12:37.386Z,16.12
2023-05-19T13:15:07.446Z,16.11
2023-05-19T13:17:36.994Z,16.07
2023-05-19T13:20:06.516Z,16.01
2023-05-19T13:22:35.266Z,15.97
2023-05-19T13:25:03.846Z,16.00
2023-05-19T13:27:33.980Z,16.01
2023-05-19T13:30:02.622Z,16.00
2023-05-19T13:32:31.425Z,15.88
2023-05-19T13:35:00.131Z,15.91
2023-05-19T13:37:28.980Z,16.08
2023-05-19T13:39:58.700Z,15.76
2023-05-19T13:42:27.489Z,15.95
2023-05-19T13:44:57.828Z,15.88
2023-05-19T13:47:26.969Z,15.86
2023-05-19T13:49:55.697Z,15.73
2023-05-19T13:52:24.514Z,15.74
2023-05-19T13:54:54.789Z,15.60
2023-05-19T13:57:23.561Z,15.59
2023-05-19T14:00:02.007Z,15.58
2023-05-19T14:02:42.626Z,15.49
2023-05-19T14:05:11.144Z,15.56
2023-05-19T14:07:39.824Z,15.55
2023-05-19T14:10:09.693Z,15.48
2023-05-19T14:12:55.101Z,15.59
2023-05-19T14:15:27.155Z,15.53
2023-05-19T14:17:57.160Z,15.54
2023-05-19T14:20:27.879Z,15.59
2023-05-19T14:22:57.836Z,15.54
2023-05-19T14:25:26.452Z,15.47
2023-05-19T14:27:55.060Z,15.27
2023-05-19T14:30:23.672Z,15.28
2023-05-19T14:32:52.371Z,15.30
2023-05-19T14:35:23.352Z,15.31
2023-05-19T14:37:52.840Z,15.27
2023-05-19T14:40:21.527Z,15.40
2023-05-19T14:42:50.264Z,15.29
2023-05-19T14:45:18.764Z,15.41
2023-05-19T14:47:48.053Z,15.52
2023-05-19T14:50:16.633Z,15.47
2023-05-19T14:52:46.696Z,15.29
2023-05-19T14:55:15.284Z,15.17
2023-05-19T14:57:43.888Z,15.17
2023-05-19T15:00:13.604Z,15.13
2023-05-19T15:02:42.186Z,15.11
2023-05-19T15:05:11.871Z,15.08
2023-05-19T15:07:40.882Z,15.17
2023-05-19T15:10:11.475Z,15.03
2023-05-19T15:12:40.107Z,15.01
2023-05-19T15:15:09.970Z,15.10
2023-05-19T15:17:38.660Z,15.08
2023-05-19T15:20:08.557Z,15.03
2023-05-19T15:22:37.466Z,15.01
2023-05-19T15:25:06.506Z,15.12
2023-05-19T15:27:37.810Z,15.02
2023-05-19T15:30:07.547Z,15.03
2023-05-19T15:32:36.230Z,15.07
2023-05-19T15:35:05.155Z,15.10
2023-05-19T15:37:33.868Z,15.39
2023-05-19T15:40:02.569Z,15.38
2023-05-19T15:42:31.087Z,15.64
2023-05-19T15:45:01.362Z,15.71
2023-05-19T15:47:30.137Z,15.72
2023-05-19T15:49:58.807Z,16.10
2023-05-19T15:52:27.923Z,16.38
2023-05-19T15:54:59.175Z,16.54
2023-05-19T15:57:28.022Z,16.76
2023-05-19T15:59:56.656Z,16.92
2023-05-19T16:02:27.079Z,17.07
2023-05-19T16:04:57.056Z,17.35
2023-05-19T16:07:25.657Z,17.16
2023-05-19T16:09:54.363Z,17.03
2023-05-19T16:12:24.013Z,17.23
2023-05-19T16:14:52.802Z,17.60
2023-05-19T16:17:21.398Z,17.36
2023-05-19T16:19:51.679Z,17.65
2023-05-19T16:22:21.792Z,17.37
2023-05-19T16:24:51.113Z,17.66
2023-05-19T16:27:19.918Z,17.67
2023-05-19T16:29:48.628Z,18.03
2023-05-19T16:32:17.260Z,17.58
2023-05-19T16:34:46.088Z,17.87
2023-05-19T16:37:16.166Z,17.83
2023-05-19T16:39:45.170Z,17.49
2023-05-19T16:42:13.996Z,17.35
2023-05-19T16:44:43.662Z,17.56
2023-05-19T16:47:12.300Z,17.08
2023-05-19T16:49:41.237Z,17.16
2023-05-19T16:52:09.834Z,17.40
2023-05-19T16:54:40.015Z,17.07
2023-05-19T16:57:08.696Z,17.36
2023-05-19T16:59:37.397Z,17.07
2023-05-19T17:02:06.365Z,16.67
2023-05-19T17:04:35.394Z,16.79
2023-05-19T17:07:04.074Z,16.66
2023-05-19T17:09:32.896Z,16.33
2023-05-19T17:12:03.111Z,16.28
2023-05-19T17:14:31.820Z,16.28
2023-05-19T17:17:00.492Z,16.05
2023-05-19T17:19:29.330Z,16.23
2023-05-19T17:21:57.981Z,15.57
2023-05-19T17:24:28.723Z,15.51
2023-05-19T17:26:57.451Z,15.62
2023-05-19T17:29:28.274Z,15.66
2023-05-19T17:31:57.074Z,15.58
2023-05-19T17:34:25.751Z,15.51
2023-05-19T17:36:54.476Z,15.21
2023-05-19T17:39:23.168Z,15.22
2023-05-19T17:41:51.740Z,15.10
2023-05-19T17:44:20.371Z,14.80
2023-05-19T17:46:50.797Z,14.56
2023-05-19T17:49:19.571Z,14.57
2023-05-19T17:51:48.587Z,14.53
2023-05-19T17:54:18.076Z,14.51
2023-05-19T17:56:47.212Z,14.21
2023-05-19T17:59:16.438Z,14.09
2023-05-19T18:01:45.827Z,13.67
2023-05-19T18:04:16.721Z,13.28
2023-05-19T18:06:46.486Z,13.12
2023-05-19T18:09:16.591Z,12.80
2023-05-19T18:11:45.189Z,12.68
2023-05-19T18:14:13.857Z,12.74
2023-05-19T18:16:42.725Z,12.62
2023-05-19T18:19:11.477Z,12.55
2023-05-19T18:21:42.684Z,12.54
2023-05-19T18:24:11.599Z,12.84
2023-05-19T18:26:42.341Z,13.05
2023-05-19T18:29:11.584Z,13.18
2023-05-19T18:31:40.305Z,12.88
2023-05-19T18:34:09.008Z,13.10
2023-05-19T18:36:37.763Z,13.16
2023-05-19T18:39:07.954Z,13.14
2023-05-19T18:41:37.832Z,13.18
2023-05-19T18:44:08.303Z,12.88
2023-05-19T18:46:37.016Z,12.13
2023-05-19T18:49:06.170Z,11.50
2023-05-19T18:51:36.236Z,11.64
2023-05-19T18:54:05.100Z,11.09
2023-05-19T18:56:35.809Z,10.92
2023-05-19T18:59:04.499Z,11.19
2023-05-19T19:01:33.243Z,11.21
2023-05-19T19:04:02.302Z,11.19
2023-05-19T19:06:31.445Z,11.24
2023-05-19T19:09:00.207Z,11.37
2023-05-19T19:11:28.890Z,11.36
2023-05-19T19:13:58.962Z,11.48
2023-05-19T19:16:27.525Z,11.57
2023-05-19T19:18:56.368Z,11.45
2023-05-19T19:21:25.990Z,11.47
2023-05-19T19:23:55.757Z,11.32
2023-05-19T19:26:25.519Z,11.32
2023-05-19T19:28:54.156Z,11.20
2023-05-19T19:31:26.030Z,11.18
2023-05-19T19:33:58.977Z,11.17
2023-05-19T19:36:28.389Z,11.10
2023-05-19T19:38:57.154Z,11.09
2023-05-19T19:41:26.685Z,11.01
2023-05-19T19:43:55.283Z,10.91
2023-05-19T19:46:25.599Z,10.80
2023-05-19T19:48:57.377Z,10.73
2023-05-19T19:51:26.420Z,10.61
2023-05-19T19:53:55.083Z,10.18
2023-05-19T19:56:26.422Z,10.03
2023-05-19T19:58:57.555Z,9.71
2023-05-19T20:01:29.145Z,9.56
2023-05-19T20:03:58.478Z,8.82
2023-05-19T20:06:27.284Z,8.51
2023-05-19T20:08:55.988Z,8.40
2023-05-19T20:11:26.788Z,8.26
2023-05-19T20:13:55.349Z,8.08
2023-05-19T20:16:24.411Z,7.87
2023-05-19T20:18:54.690Z,7.81
2023-05-19T20:21:23.455Z,7.84
2023-05-19T20:23:52.087Z,8.05
2023-05-19T20:26:20.709Z,8.46
2023-05-19T20:28:49.403Z,8.72
2023-05-19T20:31:18.057Z,8.70
2023-05-19T20:33:47.003Z,8.32
2023-05-19T20:36:17.086Z,8.08
2023-05-19T20:38:45.766Z,8.39
2023-05-19T20:41:14.512Z,8.52
2023-05-19T20:43:43.169Z,8.68
2023-05-19T20:46:11.938Z,8.66
2023-05-19T20:48:40.810Z,8.82
2023-05-19T20:51:09.347Z,8.62
2023-05-19T20:53:39.447Z,8.35
2023-05-19T20:56:10.692Z,8.47
2023-05-19T20:58:39.268Z,8.53
2023-05-19T21:01:08.040Z,8.57
2023-05-19T21:03:36.728Z,8.31
2023-05-19T21:06:05.486Z,8.30
2023-05-19T21:08:34.152Z,8.23
2023-05-19T21:11:04.226Z,8.27
2023-05-19T21:13:34.054Z,7.04
2023-05-19T21:16:02.775Z,6.61
2023-05-19T21:18:31.364Z,6.32
2023-05-19T21:21:03.818Z,6.19
2023-05-19T21:23:32.570Z,5.90
2023-05-19T21:26:01.122Z,5.65
2023-05-19T21:28:31.254Z,5.65
2023-05-19T21:30:59.845Z,5.68
2023-05-19T21:33:28.464Z,5.58
2023-05-19T21:35:58.619Z,5.52
2023-05-19T21:38:27.307Z,5.35
2023-05-19T21:40:56.210Z,5.25
2023-05-19T21:43:24.952Z,5.28
2023-05-19T21:45:55.121Z,5.37
2023-05-19T21:48:23.699Z,5.33
2023-05-19T21:50:55.826Z,5.35
2023-05-19T21:53:24.606Z,5.38
2023-05-19T21:55:53.183Z,5.41
2023-05-19T21:58:21.932Z,5.51
2023-05-19T22:00:51.170Z,5.69
2023-05-19T22:03:21.988Z,6.03
2023-05-19T22:05:51.220Z,6.27
2023-05-19T22:08:21.117Z,6.35
2023-05-19T22:10:51.195Z,6.25
2023-05-19T22:13:19.948Z,6.31
2023-05-19T22:15:48.651Z,6.46
2023-05-19T22:18:17.254Z,6.53
2023-05-19T22:20:47.754Z,6.21
2023-05-19T22:23:16.447Z,5.72
2023-05-19T22:25:45.049Z,5.74
2023-05-19T22:28:13.769Z,5.84
2023-05-19T22:30:42.941Z,6.09
2023-05-19T22:33:13.267Z,6.33
2023-05-19T22:35:43.335Z,6.42
2023-05-19T22:38:13.400Z,6.48
2023-05-19T22:40:42.026Z,5.97
2023-05-19T22:43:10.751Z,5.89
2023-05-19T22:45:39.354Z,6.07
2023-05-19T22:48:08.406Z,6.22
2023-05-19T22:50:36.986Z,6.12
2023-05-19T22:53:05.635Z,5.44
2023-05-19T22:55:35.859Z,4.86
2023-05-19T22:58:04.655Z,4.56
2023-05-19T23:00:33.384Z,4.35
2023-05-19T23:03:02.077Z,4.25
2023-05-19T23:05:30.803Z,4.20
2023-05-19T23:07:59.397Z,4.48
2023-05-19T23:10:28.084Z,4.82
2023-05-19T23:12:58.228Z,5.08
2023-05-19T23:15:26.728Z,5.15
2023-05-19T23:17:55.438Z,5.27
2023-05-19T23:20:24.113Z,5.18
2023-05-19T23:22:52.751Z,5.05
2023-05-19T23:25:21.411Z,5.21
2023-05-19T23:27:49.903Z,5.23
2023-05-19T23:30:22.841Z,5.42
2023-05-19T23:32:51.554Z,5.43
2023-05-19T23:35:20.816Z,5.48
2023-05-19T23:37:49.621Z,5.31
2023-05-19T23:40:18.334Z,5.12
2023-05-19T23:42:46.962Z,4.74
2023-05-19T23:45:15.573Z,4.29
2023-05-19T23:47:45.614Z,4.11
2023-05-19T23:50:14.294Z,4.16
2023-05-19T23:52:42.925Z,4.12
2023-05-19T23:55:13.214Z,4.32
2023-05-19T23:57:42.274Z,4.28
